createdAt,value
2022-08-20T00:01:17.131Z,20.60
2022-08-20T00:04:14.489Z,16.80
2022-08-20T00:07:12.355Z,16.60
2022-08-20T00:10:09.978Z,16.40
2022-08-20T00:13:07.816Z,15.25
2022-08-20T00:16:05.575Z,17.00
2022-08-20T00:19:05.524Z,21.40
2022-08-20T00:22:03.101Z,13.00
2022-08-20T00:24:59.799Z,16.40
2022-08-20T00:27:57.650Z,17.40
2022-08-20T00:30:54.701Z,15.60
2022-08-20T00:33:52.357Z,19.20
2022-08-20T00:36:50.048Z,19.00
2022-08-20T00:39:47.105Z,16.80
2022-08-20T00:43:04.290Z,19.20
2022-08-20T00:46:04.198Z,10.40
2022-08-20T00:49:03.142Z,19.80
2022-08-20T00:52:07.566Z,15.00
2022-08-20T00:55:05.332Z,16.40
2022-08-20T00:58:09.005Z,18.60
2022-08-20T01:01:06.243Z,14.80
2022-08-20T01:04:02.958Z,13.20
2022-08-20T01:07:00.692Z,18.80
2022-08-20T01:09:59.522Z,16.20
2022-08-20T01:12:59.435Z,19.60
2022-08-20T01:15:57.266Z,19.60
2022-08-20T01:18:54.106Z,19.80
2022-08-20T01:21:52.011Z,14.80
2022-08-20T01:24:48.812Z,19.20
2022-08-20T01:27:45.754Z,19.80
2022-08-20T01:30:42.707Z,18.20
2022-08-20T01:33:40.543Z,17.40
2022-08-20T01:36:45.917Z,19.20
2022-08-20T01:39:44.927Z,18.20
2022-08-20T01:42:58.542Z,19.20
2022-08-20T01:45:57.165Z,20.60
2022-08-20T01:48:54.124Z,19.60
2022-08-20T01:51:52.497Z,21.00
2022-08-20T01:54:50.054Z,16.00
2022-08-20T01:57:48.493Z,18.40
2022-08-20T02:00:48.259Z,18.60
2022-08-20T02:03:45.266Z,19.40
2022-08-20T02:06:56.130Z,17.60
2022-08-20T02:09:55.267Z,19.00
2022-08-20T02:12:53.111Z,20.00
2022-08-20T02:15:50.923Z,18.60
2022-08-20T02:18:49.585Z,21.20
2022-08-20T02:21:49.791Z,21.00
2022-08-20T02:24:47.480Z,21.20
2022-08-20T02:27:46.035Z,22.80
2022-08-20T02:30:45.258Z,24.00
2022-08-20T02:33:42.418Z,19.20
2022-08-20T02:37:00.193Z,21.60
2022-08-20T02:39:57.437Z,21.60
2022-08-20T02:42:55.074Z,24.40
2022-08-20T02:45:52.285Z,24.00
2022-08-20T02:48:48.973Z,20.60
2022-08-20T02:51:47.157Z,20.20
2022-08-20T02:54:43.883Z,20.60
2022-08-20T02:57:41.210Z,19.80
2022-08-20T03:00:38.769Z,22.60
2022-08-20T03:03:36.059Z,24.80
2022-08-20T03:06:33.114Z,19.40
2022-08-20T03:09:30.337Z,25.60
2022-08-20T03:12:27.069Z,22.20
2022-08-20T03:15:24.017Z,19.00
2022-08-20T03:18:21.279Z,22.60
2022-08-20T03:21:18.369Z,25.60
2022-08-20T03:24:15.234Z,27.20
2022-08-20T03:27:13.665Z,20.40
2022-08-20T03:30:13.255Z,25.20
2022-08-20T03:33:10.508Z,28.60
2022-08-20T03:36:08.485Z,28.60
2022-08-20T03:39:07.112Z,25.00
2022-08-20T03:42:04.837Z,25.80
2022-08-20T03:45:08.890Z,27.20
2022-08-20T03:48:08.660Z,26.20
2022-08-20T03:51:07.135Z,29.00
2022-08-20T03:54:04.463Z,27.20
2022-08-20T03:57:02.933Z,31.00
2022-08-20T04:00:13.022Z,28.80
2022-08-20T04:03:10.415Z,21.40
2022-08-20T04:06:07.549Z,27.40
2022-08-20T04:09:06.041Z,30.40
2022-08-20T04:12:04.209Z,27.20
2022-08-20T04:15:01.053Z,29.80
2022-08-20T04:17:58.951Z,27.40
2022-08-20T04:20:56.286Z,27.20
2022-08-20T04:23:53.075Z,29.60
2022-08-20T04:26:49.906Z,21.00
2022-08-20T04:29:47.530Z,28.00
2022-08-20T04:32:45.468Z,23.40
2022-08-20T04:35:43.281Z,31.40
2022-08-20T04:38:48.393Z,32.00
2022-08-20T04:41:48.252Z,27.20
2022-08-20T04:44:45.282Z,31.20
2022-08-20T04:47:42.126Z,32.00
2022-08-20T04:50:39.789Z,31.00
2022-08-20T04:53:37.238Z,30.20
2022-08-20T04:56:38.737Z,33.80
2022-08-20T04:59:36.320Z,39.40
2022-08-20T05:02:33.035Z,29.40
2022-08-20T05:05:30.969Z,30.60
2022-08-20T05:08:28.179Z,31.00
2022-08-20T05:11:33.433Z,32.00
2022-08-20T05:14:33.257Z,35.20
2022-08-20T05:17:30.643Z,29.20
2022-08-20T05:20:32.138Z,35.20
2022-08-20T05:23:29.160Z,28.80
2022-08-20T05:26:26.576Z,30.00
2022-08-20T05:29:24.642Z,31.80
2022-08-20T05:32:22.483Z,31.00
2022-08-20T05:35:19.529Z,28.60
2022-08-20T05:38:18.129Z,35.40
2022-08-20T05:41:28.422Z,31.00
2022-08-20T05:44:27.138Z,31.40
2022-08-20T05:47:29.198Z,31.00
2022-08-20T05:50:33.242Z,30.80
2022-08-20T05:53:30.534Z,33.20
2022-08-20T05:56:30.565Z,29.20
2022-08-20T05:59:28.986Z,34.20
2022-08-20T06:02:44.640Z,33.20
2022-08-20T06:05:42.385Z,31.80
2022-08-20T06:08:38.934Z,30.80
2022-08-20T06:11:37.435Z,27.60
2022-08-20T06:14:35.383Z,29.00
2022-08-20T06:17:39.401Z,33.40
2022-08-20T06:20:38.158Z,23.40
2022-08-20T06:23:56.488Z,27.40
2022-08-20T06:27:14.379Z,31.00
2022-08-20T06:30:12.346Z,32.80
2022-08-20T06:33:09.341Z,27.20
2022-08-20T06:36:07.155Z,24.80
2022-08-20T06:39:04.194Z,23.20
2022-08-20T06:42:01.109Z,27.00
2022-08-20T06:44:59.707Z,24.00
2022-08-20T06:47:58.970Z,26.20
2022-08-20T06:50:56.586Z,25.20
2022-08-20T06:53:53.280Z,22.20
2022-08-20T06:56:50.198Z,24.80
2022-08-20T06:59:54.318Z,21.80
2022-08-20T07:02:51.324Z,20.00
2022-08-20T07:05:48.493Z,21.40
2022-08-20T07:08:45.379Z,25.60
2022-08-20T07:11:42.293Z,20.00
2022-08-20T07:14:39.573Z,21.80
2022-08-20T07:17:37.118Z,21.40
2022-08-20T07:20:36.006Z,18.40
2022-08-20T07:23:33.247Z,19.80
2022-08-20T07:26:30.086Z,20.60
2022-08-20T07:29:47.658Z,19.00
2022-08-20T07:32:45.660Z,18.60
2022-08-20T07:35:49.052Z,21.00
2022-08-20T07:38:47.464Z,18.20
2022-08-20T07:41:51.571Z,15.40
2022-08-20T07:44:54.162Z,18.60
2022-08-20T07:47:53.632Z,17.40
2022-08-20T07:50:50.427Z,13.60
2022-08-20T07:53:47.736Z,15.60
2022-08-20T07:56:45.280Z,15.80
2022-08-20T07:59:42.551Z,15.00
2022-08-20T08:02:40.151Z,10.80
2022-08-20T08:05:39.123Z,12.80
2022-08-20T08:08:37.003Z,10.80
2022-08-20T08:11:35.466Z,11.80
2022-08-20T08:14:32.737Z,9.20
2022-08-20T08:17:31.887Z,11.00
2022-08-20T08:20:29.526Z,12.60
2022-08-20T08:23:31.661Z,10.80
2022-08-20T08:26:29.589Z,13.80
2022-08-20T08:29:26.666Z,10.20
2022-08-20T08:32:24.631Z,13.00
2022-08-20T08:35:22.874Z,12.00
2022-08-20T08:38:22.501Z,8.40
2022-08-20T08:41:20.333Z,9.60
2022-08-20T08:44:23.282Z,12.40
2022-08-20T08:47:26.502Z,9.40
2022-08-20T08:50:49.866Z,7.00
2022-08-20T08:53:48.684Z,11.20
2022-08-20T08:56:50.099Z,9.60
2022-08-20T09:00:12.272Z,8.20
2022-08-20T09:03:11.389Z,10.80
2022-08-20T09:06:08.538Z,11.00
2022-08-20T09:09:05.397Z,9.20
2022-08-20T09:12:11.790Z,10.00
2022-08-20T09:15:10.034Z,8.20
2022-08-20T09:18:07.998Z,10.00
2022-08-20T09:21:06.405Z,9.00
2022-08-20T09:24:04.882Z,8.00
2022-08-20T09:27:02.487Z,7.60
2022-08-20T09:29:59.459Z,8.00
2022-08-20T09:32:59.401Z,7.00
2022-08-20T09:35:56.357Z,10.40
2022-08-20T09:38:53.643Z,7.00
2022-08-20T09:41:50.409Z,7.00
2022-08-20T09:44:47.503Z,7.80
2022-08-20T09:48:01.928Z,7.20
2022-08-20T09:50:59.473Z,8.40
2022-08-20T09:53:57.308Z,7.00
2022-08-20T09:56:56.254Z,7.80
2022-08-20T09:59:57.128Z,8.00
2022-08-20T10:02:54.659Z,8.00
2022-08-20T10:05:51.485Z,6.40
2022-08-20T10:08:48.955Z,6.60
2022-08-20T10:11:46.702Z,6.80
2022-08-20T10:14:43.573Z,7.80
2022-08-20T10:17:41.396Z,7.20
2022-08-20T10:20:38.751Z,7.00
2022-08-20T10:23:36.484Z,5.60
2022-08-20T10:26:33.475Z,7.60
2022-08-20T10:29:30.479Z,7.00
2022-08-20T10:32:27.720Z,8.20
2022-08-20T10:35:24.970Z,6.50
2022-08-20T10:38:22.379Z,8.40
2022-08-20T10:41:19.993Z,6.60
2022-08-20T10:44:17.813Z,7.80
2022-08-20T10:47:15.459Z,6.60
2022-08-20T10:50:14.957Z,6.00
2022-08-20T10:53:13.108Z,5.00
2022-08-20T10:56:15.038Z,5.25
2022-08-20T10:59:12.501Z,5.20
2022-08-20T11:02:09.632Z,5.25
2022-08-20T11:05:06.593Z,6.75
2022-08-20T11:08:04.200Z,5.00
2022-08-20T11:11:01.420Z,5.75
2022-08-20T11:13:58.364Z,4.75
2022-08-20T11:16:56.298Z,5.00
2022-08-20T11:19:53.973Z,5.25
2022-08-20T11:22:52.154Z,3.25
2022-08-20T11:25:49.645Z,5.25
2022-08-20T11:28:46.370Z,4.75
2022-08-20T11:31:43.503Z,5.20
2022-08-20T11:34:40.724Z,4.00
2022-08-20T11:37:38.214Z,5.00
2022-08-20T11:40:35.351Z,4.50
2022-08-20T11:43:32.326Z,4.00
2022-08-20T11:46:29.921Z,4.00
2022-08-20T11:49:27.273Z,5.75
2022-08-20T11:52:24.659Z,4.25
2022-08-20T11:55:28.983Z,3.00
2022-08-20T11:58:27.265Z,4.50
2022-08-20T12:01:24.763Z,5.00
2022-08-20T12:04:21.885Z,4.00
2022-08-20T12:07:23.845Z,4.75
2022-08-20T12:10:23.241Z,6.00
2022-08-20T12:13:20.795Z,1.00
2022-08-20T12:16:22.573Z,5.00
2022-08-20T12:19:19.753Z,4.50
2022-08-20T12:22:24.418Z,3.75
2022-08-20T12:25:22.432Z,4.50
2022-08-20T12:28:23.008Z,6.00
2022-08-20T12:31:23.590Z,3.75
2022-08-20T12:34:20.729Z,4.25
2022-08-20T12:37:19.613Z,4.00
2022-08-20T12:40:22.705Z,3.50
2022-08-20T12:43:28.021Z,3.50
2022-08-20T12:46:25.794Z,4.25
2022-08-20T12:49:22.403Z,4.50
2022-08-20T12:52:20.227Z,3.25
2022-08-20T12:55:18.866Z,5.00
2022-08-20T12:58:16.964Z,4.00
2022-08-20T13:01:15.818Z,3.00
2022-08-20T13:04:12.696Z,2.25
2022-08-20T13:07:11.574Z,4.25
2022-08-20T13:10:10.501Z,3.50
2022-08-20T13:13:07.932Z,6.75
2022-08-20T13:16:04.708Z,3.00
2022-08-20T13:19:01.930Z,5.25
2022-08-20T13:21:59.073Z,4.00
2022-08-20T13:24:56.601Z,5.00
2022-08-20T13:27:57.309Z,4.00
2022-08-20T13:30:54.907Z,4.00
2022-08-20T13:33:54.475Z,6.50
2022-08-20T13:36:51.517Z,3.00
2022-08-20T13:39:49.352Z,4.50
2022-08-20T13:42:46.728Z,2.00
2022-08-20T13:45:43.951Z,2.00
2022-08-20T13:48:40.389Z,3.50
2022-08-20T13:51:37.497Z,4.00
2022-08-20T13:54:34.463Z,2.25
2022-08-20T13:57:32.640Z,3.00
2022-08-20T14:00:31.819Z,4.00
2022-08-20T14:03:29.753Z,4.50
2022-08-20T14:06:26.679Z,3.50
2022-08-20T14:09:23.814Z,4.25
2022-08-20T14:12:23.114Z,4.25
2022-08-20T14:15:20.684Z,3.00
2022-08-20T14:18:17.592Z,1.00
2022-08-20T14:21:14.628Z,3.00
2022-08-20T14:24:11.877Z,3.25
2022-08-20T14:27:09.960Z,4.00
2022-08-20T14:30:08.937Z,4.00
2022-08-20T14:33:05.679Z,1.25
2022-08-20T14:36:02.888Z,2.50
2022-08-20T14:38:59.516Z,2.00
2022-08-20T14:41:57.173Z,3.25
2022-08-20T14:44:58.842Z,4.00
2022-08-20T14:47:59.747Z,5.00
2022-08-20T14:50:56.481Z,3.50
2022-08-20T14:53:53.952Z,3.25
2022-08-20T14:56:50.972Z,2.75
2022-08-20T14:59:47.941Z,3.75
2022-08-20T15:02:45.554Z,2.75
2022-08-20T15:05:42.782Z,3.00
2022-08-20T15:08:41.871Z,3.75
2022-08-20T15:11:40.913Z,2.75
2022-08-20T15:14:39.109Z,3.00
2022-08-20T15:17:36.825Z,2.00
2022-08-20T15:20:34.816Z,2.00
2022-08-20T15:23:31.622Z,2.25
2022-08-20T15:26:29.661Z,2.75
2022-08-20T15:29:26.665Z,2.75
2022-08-20T15:32:23.523Z,2.00
2022-08-20T15:35:20.578Z,3.00
2022-08-20T15:38:17.501Z,3.00
2022-08-20T15:41:14.927Z,2.50
2022-08-20T15:44:12.052Z,3.00
2022-08-20T15:47:43.972Z,6.50
2022-08-20T15:51:00.653Z,2.75
2022-08-20T15:54:18.172Z,2.75
2022-08-20T15:57:41.102Z,3.25
2022-08-20T16:01:24.259Z,3.00
2022-08-20T16:04:31.330Z,3.00
2022-08-20T16:07:53.797Z,3.25
2022-08-20T16:11:28.962Z,3.00
2022-08-20T16:14:27.421Z,2.25
2022-08-20T16:17:31.737Z,2.75
2022-08-20T16:20:35.974Z,2.00
2022-08-20T16:23:33.601Z,2.50
2022-08-20T16:26:59.595Z,3.00
2022-08-20T16:30:08.723Z,3.00
2022-08-20T16:33:12.710Z,5.50
2022-08-20T16:36:23.785Z,3.00
2022-08-20T16:39:27.855Z,3.00
2022-08-20T16:42:24.971Z,4.25
2022-08-20T16:45:25.500Z,2.00
2022-08-20T16:48:22.880Z,2.50
2022-08-20T16:51:51.980Z,2.75
2022-08-20T16:54:49.876Z,4.00
2022-08-20T16:57:47.861Z,3.50
2022-08-20T17:00:45.627Z,2.75
2022-08-20T17:03:49.862Z,3.75
2022-08-20T17:06:48.351Z,3.00
2022-08-20T17:09:48.738Z,3.25
2022-08-20T17:13:03.711Z,2.50
2022-08-20T17:16:02.746Z,4.00
2022-08-20T17:19:11.679Z,3.00
2022-08-20T17:22:09.827Z,2.75
2022-08-20T17:25:30.878Z,3.00
2022-08-20T17:28:30.828Z,4.00
2022-08-20T17:31:38.915Z,2.50
2022-08-20T17:34:50.436Z,3.25
2022-08-20T17:37:51.228Z,2.25
2022-08-20T17:40:50.658Z,2.75
2022-08-20T17:43:47.709Z,3.00
2022-08-20T17:46:46.282Z,5.00
2022-08-20T17:50:02.319Z,2.00
2022-08-20T17:53:05.333Z,3.75
2022-08-20T17:56:28.934Z,3.00
2022-08-20T17:59:59.932Z,3.25
2022-08-20T18:02:45.624Z,2.00
2022-08-20T18:05:42.638Z,4.50
2022-08-20T18:09:17.326Z,3.00
2022-08-20T18:12:24.234Z,1.00
2022-08-20T18:15:40.907Z,2.75
2022-08-20T18:18:56.700Z,5.50
2022-08-20T18:22:04.280Z,3.25
2022-08-20T18:25:07.536Z,3.75
2022-08-20T18:28:38.377Z,2.00
2022-08-20T18:31:49.716Z,4.50
2022-08-20T18:34:48.251Z,3.00
2022-08-20T18:37:45.591Z,3.50
2022-08-20T18:40:43.325Z,3.25
2022-08-20T18:43:41.198Z,2.75
2022-08-20T18:46:54.226Z,3.25
2022-08-20T18:50:05.300Z,4.00
2022-08-20T18:53:11.146Z,3.50
2022-08-20T18:56:14.550Z,2.75
2022-08-20T18:59:17.793Z,4.00
2022-08-20T19:02:26.845Z,3.50
2022-08-20T19:05:33.225Z,3.75
2022-08-20T19:08:59.468Z,4.50
2022-08-20T19:12:02.992Z,3.00
2022-08-20T19:15:32.002Z,4.75
2022-08-20T19:18:43.071Z,5.75
2022-08-20T19:21:42.824Z,5.00
2022-08-20T19:24:44.240Z,4.50
2022-08-20T19:27:41.041Z,5.00
2022-08-20T19:30:39.926Z,6.00
2022-08-20T19:33:43.857Z,4.50
2022-08-20T19:36:43.094Z,5.00
2022-08-20T19:39:42.340Z,8.75
2022-08-20T19:42:43.204Z,3.25
2022-08-20T19:45:51.736Z,3.25
2022-08-20T19:49:20.492Z,4.00
2022-08-20T19:52:31.255Z,2.00
2022-08-20T19:55:33.549Z,6.00
2022-08-20T19:58:31.683Z,5.00
2022-08-20T20:01:29.395Z,9.00
2022-08-20T20:04:29.745Z,7.25
2022-08-20T20:07:29.516Z,8.25
2022-08-20T20:10:32.297Z,5.75
2022-08-20T20:13:37.720Z,6.50
2022-08-20T20:16:37.518Z,7.50
2022-08-20T20:19:47.852Z,8.60
2022-08-20T20:23:15.175Z,6.00
2022-08-20T20:26:15.055Z,4.50
2022-08-20T20:29:13.759Z,8.25
2022-08-20T20:32:20.569Z,6.00
2022-08-20T20:35:30.207Z,8.75
2022-08-20T20:38:28.060Z,7.00
2022-08-20T20:41:26.391Z,7.80
2022-08-20T20:44:38.196Z,5.00
2022-08-20T20:47:36.020Z,5.25
2022-08-20T20:50:36.742Z,3.60
2022-08-20T20:53:51.659Z,4.80
2022-08-20T20:57:03.137Z,5.00
2022-08-20T21:00:00.261Z,5.00
2022-08-20T21:02:57.038Z,5.20
2022-08-20T21:05:57.101Z,5.00
2022-08-20T21:08:56.040Z,5.40
2022-08-20T21:11:53.058Z,5.00
2022-08-20T21:14:50.199Z,8.00
2022-08-20T21:17:47.178Z,6.00
2022-08-20T21:20:44.059Z,7.00
2022-08-20T21:23:41.649Z,6.00
2022-08-20T21:26:39.170Z,5.00
2022-08-20T21:29:35.978Z,6.00
2022-08-20T21:32:33.183Z,6.20
2022-08-20T21:35:30.088Z,5.20
2022-08-20T21:38:28.254Z,5.00
2022-08-20T21:41:30.033Z,6.20
2022-08-20T21:44:29.696Z,8.40
2022-08-20T21:47:27.322Z,5.20
2022-08-20T21:50:24.723Z,6.20
2022-08-20T21:53:22.104Z,5.40
2022-08-20T21:56:19.339Z,6.00
2022-08-20T21:59:17.193Z,6.20
2022-08-20T22:02:13.881Z,6.60
2022-08-20T22:05:11.514Z,5.80
2022-08-20T22:08:09.375Z,6.60
2022-08-20T22:11:07.656Z,6.40
2022-08-20T22:14:09.131Z,6.40
2022-08-20T22:17:06.428Z,8.00
2022-08-20T22:20:05.260Z,8.60
2022-08-20T22:23:05.482Z,6.80
2022-08-20T22:26:03.335Z,10.00
2022-08-20T22:29:01.471Z,13.00
2022-08-20T22:31:59.214Z,8.40
2022-08-20T22:34:56.356Z,8.20
2022-08-20T22:37:53.117Z,9.00
2022-08-20T22:40:50.207Z,6.60
2022-08-20T22:43:56.546Z,7.20
2022-08-20T22:46:57.123Z,4.40
2022-08-20T22:49:54.428Z,4.00
2022-08-20T22:52:52.203Z,5.40
2022-08-20T22:55:48.980Z,6.40
2022-08-20T22:58:46.320Z,5.40
2022-08-20T23:01:47.245Z,4.60
2022-08-20T23:04:44.094Z,6.60
2022-08-20T23:07:41.724Z,6.00
2022-08-20T23:10:39.121Z,7.80
2022-08-20T23:13:36.617Z,8.60
2022-08-20T23:16:42.696Z,5.60
2022-08-20T23:19:41.635Z,9.00
2022-08-20T23:22:39.339Z,6.00
2022-08-20T23:25:36.230Z,4.80
2022-08-20T23:28:33.260Z,8.00
2022-08-20T23:31:30.011Z,9.00
2022-08-20T23:34:27.582Z,6.20
2022-08-20T23:37:25.865Z,5.20
2022-08-20T23:40:26.886Z,6.20
2022-08-20T23:43:25.286Z,7.00
2022-08-20T23:46:22.237Z,6.00
2022-08-20T23:49:19.078Z,8.80
2022-08-20T23:52:16.304Z,6.40
2022-08-20T23:55:12.962Z,7.60
2022-08-20T23:58:10.189Z,5.00
